Time;durP1;ratioP1;P1;durP2;ratioP2;P2;SDS_P1;SDS_P2;PMS_P1;PMS_P2;Temp;Humidity;BMP_temperature;BMP_pressure;BME280_temperature;BME280_humidity;BME280_pressure;Samples;Min_cycle;Max_cycle;Signal;HPM_P1;HPM_P2
2022/04/25 00:01:51;;;;;;;4.38;2.10;;;;;;;3.51;52.39;100559.91;5063242;28;20107;-71
2022/04/25 00:04:16;;;;;;;3.63;2.00;;;;;;;3.44;52.39;100553.75;5062874;28;20021;-70
2022/04/25 00:06:42;;;;;;;3.80;2.05;;;;;;;3.43;52.69;100563.19;5062912;28;20029;-70
2022/04/25 00:09:07;;;;;;;4.93;2.20;;;;;;;3.39;52.56;100563.94;5063009;28;20032;-70
2022/04/25 00:11:32;;;;;;;7.90;2.15;;;;;;;3.33;52.84;100561.22;5062825;28;20059;-69
2022/04/25 00:13:58;;;;;;;5.38;2.38;;;;;;;3.30;52.71;100556.91;5044910;28;20493;-69
2022/04/25 00:16:24;;;;;;;2.85;2.15;;;;;;;3.26;53.03;100560.19;5063196;28;20037;-69
2022/04/25 00:18:49;;;;;;;2.72;2.03;;;;;;;3.22;53.15;100555.84;5063022;28;20016;-69
2022/04/25 00:21:15;;;;;;;3.80;2.15;;;;;;;3.18;53.40;100566.88;5061859;28;20020;-69
2022/04/25 00:23:40;;;;;;;3.40;2.30;;;;;;;3.12;53.72;100552.16;5062046;28;20020;-71
2022/04/25 00:26:06;;;;;;;4.55;2.15;;;;;;;3.12;53.69;100562.44;5062370;28;20048;-70
2022/04/25 00:28:31;;;;;;;3.33;2.53;;;;;;;3.07;53.52;100554.63;5062083;28;20017;-69
2022/04/25 00:30:57;;;;;;;3.10;2.05;;;;;;;3.06;53.77;100559.72;5062287;28;20051;-70
2022/04/25 00:33:22;;;;;;;3.47;2.47;;;;;;;3.05;53.67;100558.00;5062206;28;20041;-70
2022/04/25 00:35:47;;;;;;;3.28;2.33;;;;;;;2.90;53.63;100536.25;5062598;28;20029;-69
2022/04/25 00:38:13;;;;;;;2.30;2.05;;;;;;;2.99;53.81;100556.13;5062577;28;20047;-71
2022/04/25 00:40:39;;;;;;;3.05;2.10;;;;;;;2.93;53.78;100554.28;5062061;28;20037;-69
2022/04/25 00:43:05;;;;;;;3.25;2.03;;;;;;;2.90;53.76;100549.06;5044757;28;20381;-71
2022/04/25 00:45:33;;;;;;;3.28;2.25;;;;;;;2.89;53.59;100551.59;5062405;28;20080;-68
2022/04/25 00:47:59;;;;;;;3.03;2.35;;;;;;;2.82;54.00;100550.56;5064649;28;20092;-68
2022/04/25 00:50:24;;;;;;;3.10;2.33;;;;;;;2.82;53.94;100563.38;5066797;28;20051;-69
2022/04/25 00:52:50;;;;;;;3.75;2.20;;;;;;;2.68;54.00;100545.97;5066234;28;20031;-69
2022/04/25 00:55:16;;;;;;;3.88;2.25;;;;;;;2.68;54.35;100539.97;5066142;28;20028;-69
2022/04/25 00:57:42;;;;;;;2.60;2.08;;;;;;;2.62;54.56;100544.94;5066255;28;20104;-69
2022/04/25 01:00:10;;;;;;;3.95;1.90;;;;;;;2.61;54.75;100554.31;5066287;28;20056;-69
2022/04/25 01:02:36;;;;;;;3.08;1.90;;;;;;;2.57;54.72;100547.38;5066017;28;20405;-70
2022/04/25 01:05:04;;;;;;;3.97;2.30;;;;;;;2.54;54.91;100550.69;5066140;28;20021;-70
2022/04/25 01:07:30;;;;;;;3.55;2.28;;;;;;;2.55;55.16;100551.56;5066013;28;20103;-69
2022/04/25 01:09:56;;;;;;;2.25;1.80;;;;;;;2.53;54.99;100560.91;5065942;28;20036;-69
2022/04/25 01:12:21;;;;;;;2.67;1.80;;;;;;;2.54;55.28;100557.53;5065890;28;20330;-69
2022/04/25 01:14:55;;;;;;;3.30;2.55;;;;;;;2.41;55.32;100533.28;5066136;28;20489;-69
2022/04/25 01:17:20;;;;;;;2.58;2.33;;;;;;;2.48;55.29;100550.53;5065901;28;20028;-69
2022/04/25 01:19:46;;;;;;;2.50;2.00;;;;;;;2.48;55.22;100553.09;5065837;28;20017;-69
2022/04/25 01:22:14;;;;;;;5.43;2.28;;;;;;;2.47;55.26;100551.38;5065910;28;20509;-69
2022/04/25 01:27:26;;;;;;;3.50;2.50;;;;;;;2.41;55.45;100538.41;5065915;28;20071;-70
2022/04/25 01:29:53;;;;;;;3.90;2.30;;;;;;;2.40;55.41;100539.19;5065491;28;20025;-70
2022/04/25 01:32:20;;;;;;;3.35;2.63;;;;;;;2.42;55.55;100546.13;5065683;28;20029;-69
2022/04/25 01:34:46;;;;;;;2.78;2.47;;;;;;;2.40;55.53;100536.63;5065395;28;20048;-70
2022/04/25 01:37:14;;;;;;;4.55;2.70;;;;;;;2.39;55.56;100543.47;5065593;28;20025;-68
2022/04/25 01:39:47;;;;;;;3.22;2.35;;;;;;;2.38;55.24;100544.28;5065263;28;20025;-69
2022/04/25 01:42:13;;;;;;;8.70;2.60;;;;;;;2.38;55.21;100531.47;5065427;28;20135;-69
2022/04/25 01:44:39;;;;;;;5.35;2.55;;;;;;;2.40;55.46;100545.22;5065234;28;20035;-69
2022/04/25 01:47:06;;;;;;;4.82;2.50;;;;;;;2.38;55.23;100534.03;5065362;28;20056;-69
2022/04/25 01:49:35;;;;;;;8.38;3.03;;;;;;;2.41;55.31;100538.41;5065060;28;20036;-69
2022/04/25 01:52:17;;;;;;;4.75;2.67;;;;;;;2.43;55.35;100537.59;5065189;28;20103;-70
2022/04/25 01:54:43;;;;;;;5.53;3.10;;;;;;;2.46;55.02;100537.69;5064841;28;20044;-71
2022/04/25 01:57:08;;;;;;;6.95;2.83;;;;;;;2.45;55.56;100532.50;5065314;28;20025;-70
2022/04/25 01:59:36;;;;;;;3.08;2.30;;;;;;;2.45;55.28;100525.69;5064660;28;20079;-69
2022/04/25 02:02:03;;;;;;;3.42;2.95;;;;;;;2.52;55.32;100528.44;5064061;28;20021;-69
2022/04/25 02:04:29;;;;;;;3.78;2.75;;;;;;;2.50;55.23;100530.06;5046093;28;20029;-69
2022/04/25 02:06:55;;;;;;;5.50;2.80;;;;;;;2.45;55.26;100512.91;5064736;28;20016;-71
2022/04/25 02:09:21;;;;;;;2.78;1.90;;;;;;;2.49;55.09;100526.66;5063635;28;20046;-69
2022/04/25 02:11:47;;;;;;;4.03;2.60;;;;;;;2.48;55.45;100519.78;5064736;28;20032;-68
2022/04/25 02:14:13;;;;;;;4.43;3.10;;;;;;;2.41;55.47;100510.22;5064676;28;20024;-69
2022/04/25 02:16:38;;;;;;;3.70;2.70;;;;;;;2.45;55.34;100518.00;5064826;28;20063;-69
2022/04/25 02:19:03;;;;;;;4.90;2.80;;;;;;;2.45;55.07;100514.56;5046759;28;20028;-70
2022/04/25 02:21:29;;;;;;;4.15;2.67;;;;;;;2.44;55.14;100511.16;5064556;28;20108;-69
2022/04/25 02:23:54;;;;;;;3.63;2.78;;;;;;;2.43;55.18;100511.97;5064694;28;20059;-69
2022/04/25 02:26:20;;;;;;;2.33;2.13;;;;;;;2.40;55.37;100516.13;5064392;28;20021;-70
2022/04/25 02:28:45;;;;;;;3.53;2.78;;;;;;;2.32;55.33;100505.69;5064475;28;20017;-72
2022/04/25 02:31:11;;;;;;;3.65;2.70;;;;;;;2.34;55.36;100514.28;5064803;28;20063;-70
2022/04/25 02:33:36;;;;;;;3.58;2.90;;;;;;;2.32;55.50;100515.94;5043097;28;20049;-70
2022/04/25 02:36:04;;;;;;;7.00;3.08;;;;;;;2.31;55.75;100514.22;5044671;28;20056;-69
2022/04/25 02:38:31;;;;;;;4.82;3.20;;;;;;;2.28;55.87;100514.13;5044677;28;20021;-70
2022/04/25 02:41:06;;;;;;;4.20;2.95;;;;;;;2.20;55.86;100496.00;5044490;28;20029;-70
2022/04/25 02:43:40;;;;;;;6.35;3.22;;;;;;;2.22;56.15;100505.44;5044402;28;20032;-71
2022/04/25 02:46:07;;;;;;;3.45;2.55;;;;;;;2.22;56.22;100515.69;5043065;28;20024;-69
2022/04/25 02:48:36;;;;;;;3.65;2.75;;;;;;;2.17;56.43;100501.03;5044395;28;20057;-69
2022/04/25 02:51:03;;;;;;;5.93;3.38;;;;;;;2.21;56.60;100505.41;5044499;28;20030;-69
2022/04/25 02:53:29;;;;;;;3.05;2.30;;;;;;;2.19;56.62;100500.22;5044445;28;20056;-68
2022/04/25 02:55:55;;;;;;;5.65;3.00;;;;;;;2.13;56.62;100491.50;5044252;28;20446;-69
2022/04/25 02:58:20;;;;;;;5.88;3.15;;;;;;;2.21;56.66;100495.16;5044331;28;20053;-69
2022/04/25 03:00:47;;;;;;;6.20;3.70;;;;;;;2.18;57.10;100505.31;5044241;28;20025;-70
2022/04/25 03:03:13;;;;;;;4.78;3.55;;;;;;;2.15;57.27;100494.97;5044091;28;20022;-70
2022/04/25 03:05:43;;;;;;;7.05;3.47;;;;;;;2.13;57.64;100492.38;5044150;28;20070;-70
2022/04/25 03:08:11;;;;;;;4.90;3.13;;;;;;;2.10;57.64;100489.75;5044151;28;20032;-70
2022/04/25 03:10:36;;;;;;;6.82;3.78;;;;;;;2.10;57.49;100492.31;5043911;28;20029;-70
2022/04/25 03:13:05;;;;;;;5.13;2.97;;;;;;;2.07;57.34;100498.22;5043849;28;20029;-70
2022/04/25 03:15:31;;;;;;;7.35;3.63;;;;;;;2.09;57.76;100491.41;5043990;28;20041;-70
2022/04/25 03:17:56;;;;;;;5.30;3.17;;;;;;;2.06;58.09;100493.06;5043826;28;20021;-70
2022/04/25 03:20:23;;;;;;;4.43;3.33;;;;;;;2.05;58.05;100487.06;5044048;28;20021;-70
2022/04/25 03:22:48;;;;;;;6.00;3.97;;;;;;;2.05;57.99;100491.28;5043979;28;20053;-69
2022/04/25 03:25:13;;;;;;;5.97;3.67;;;;;;;2.05;58.14;100497.28;5043475;28;20025;-69
2022/04/25 03:27:39;;;;;;;4.47;2.70;;;;;;;2.03;58.31;100500.66;5043250;28;20033;-69
2022/04/25 03:30:05;;;;;;;5.97;3.58;;;;;;;2.02;58.08;100492.09;5042572;28;20021;-69
2022/04/25 03:32:30;;;;;;;4.90;3.63;;;;;;;1.99;58.46;100492.00;5043909;28;20025;-68
2022/04/25 03:34:57;;;;;;;5.50;3.67;;;;;;;1.95;58.71;100496.16;5063645;28;20021;-68
2022/04/25 03:37:23;;;;;;;5.10;3.78;;;;;;;1.96;58.78;100497.03;5045779;28;20041;-70
2022/04/25 03:39:49;;;;;;;4.70;3.13;;;;;;;1.97;58.85;100491.97;5063421;28;20017;-69
2022/04/25 03:42:15;;;;;;;4.80;3.92;;;;;;;1.94;58.80;100486.75;5063545;28;20039;-69
2022/04/25 03:44:40;;;;;;;4.82;3.92;;;;;;;1.94;58.93;100489.31;5063713;28;20027;-70
2022/04/25 03:47:06;;;;;;;8.98;3.85;;;;;;;1.94;58.80;100488.44;5063234;28;20454;-69
2022/04/25 03:49:31;;;;;;;10.57;3.90;;;;;;;1.96;59.24;100487.69;5063625;28;20028;-69
2022/04/25 03:51:56;;;;;;;5.93;3.75;;;;;;;2.01;58.99;100492.03;5063369;28;20017;-68
2022/04/25 03:57:10;;;;;;;6.40;3.13;;;;;;;2.06;59.14;100487.94;5063147;28;20052;-69
2022/04/25 03:57:14;;;;;;;7.53;3.10;;;;;;;2.09;59.10;100490.56;5063188;28;20024;-69
2022/04/25 03:59:40;;;;;;;9.63;3.83;;;;;;;2.18;58.98;100490.81;5063324;28;20021;-68
2022/04/25 04:02:05;;;;;;;4.55;3.33;;;;;;;2.23;58.96;100485.81;5063112;28;20385;-69
2022/04/25 04:04:31;;;;;;;6.57;3.42;;;;;;;2.31;58.85;100498.84;5063162;28;20021;-69
2022/04/25 04:06:57;;;;;;;9.93;3.70;;;;;;;2.31;59.15;100494.59;5063073;28;20017;-68
2022/04/25 04:12:07;;;;;;;7.07;3.88;;;;;;;2.32;59.17;100488.63;5063051;28;20028;-73
2022/04/25 04:14:32;;;;;;;7.95;3.83;;;;;;;2.42;58.91;100497.44;5063001;28;20103;-72
2022/04/25 04:16:58;;;;;;;6.05;3.80;;;;;;;2.53;59.15;100502.84;5063022;28;20354;-72
2022/04/25 04:19:24;;;;;;;5.15;3.78;;;;;;;2.72;59.05;100503.31;5063009;28;20021;-71
2022/04/25 04:21:50;;;;;;;5.10;3.13;;;;;;;3.18;59.52;100506.13;5064834;28;20031;-73
2022/04/25 04:24:15;;;;;;;4.63;3.13;;;;;;;3.80;59.47;100505.78;5067249;28;20074;-72
2022/04/25 04:26:42;;;;;;;5.32;2.72;;;;;;;4.55;59.21;100492.63;5066843;28;20025;-72
2022/04/25 04:29:08;;;;;;;6.22;3.08;;;;;;;5.24;58.19;100500.63;5066870;28;20024;-70
2022/04/25 04:31:33;;;;;;;7.93;3.20;;;;;;;5.66;56.70;100501.19;5066473;28;20025;-71
2022/04/25 04:33:59;;;;;;;5.35;2.70;;;;;;;5.92;56.39;100493.81;5066788;28;20364;-70
2022/04/25 04:36:26;;;;;;;6.75;3.08;;;;;;;6.18;55.74;100503.56;5066866;28;20028;-68
2022/04/25 04:38:51;;;;;;;4.18;2.78;;;;;;;6.65;56.26;100493.75;5066536;28;20021;-72
2022/04/25 04:41:17;;;;;;;3.97;2.63;;;;;;;7.21;55.46;100488.16;5066535;28;20340;-73
2022/04/25 04:43:42;;;;;;;3.25;2.67;;;;;;;7.68;53.51;100491.88;5066746;28;20417;-72
2022/04/25 04:46:08;;;;;;;4.95;2.50;;;;;;;8.08;53.02;100495.50;5066732;28;20517;-71
2022/04/25 04:48:33;;;;;;;3.97;2.60;;;;;;;8.55;51.68;100495.63;5066718;28;20540;-71
2022/04/25 04:50:58;;;;;;;3.17;2.72;;;;;;;8.96;51.41;100493.91;5066844;28;20025;-73
2022/04/25 04:53:24;;;;;;;5.03;2.63;;;;;;;9.24;49.78;100495.63;5066535;28;20112;-72
2022/04/25 04:55:51;;;;;;;3.58;2.30;;;;;;;9.28;49.24;100481.81;5066343;28;20021;-70
2022/04/25 04:58:18;;;;;;;3.08;2.50;;;;;;;9.68;49.85;100501.56;5066584;28;20021;-70
2022/04/25 05:00:44;;;;;;;3.10;2.70;;;;;;;10.04;48.26;100491.06;5066397;28;20029;-70
2022/04/25 05:03:11;;;;;;;3.55;2.50;;;;;;;10.52;47.47;100484.75;5065956;28;20089;-71
2022/04/25 05:05:36;;;;;;;5.25;2.92;;;;;;;10.91;46.77;100482.72;5065756;28;20054;-70
2022/04/25 05:08:02;;;;;;;4.68;2.40;;;;;;;11.30;45.66;100481.50;5065872;28;20025;-70
2022/04/25 05:10:27;;;;;;;7.13;2.50;;;;;;;11.65;44.79;100487.19;5047534;28;20389;-70
2022/04/25 05:12:54;;;;;;;3.65;2.30;;;;;;;12.17;43.93;100481.38;5065635;28;20084;-70
2022/04/25 05:15:20;;;;;;;2.67;1.77;;;;;;;12.36;42.95;100479.38;5047708;28;20029;-71
2022/04/25 05:17:52;;;;;;;3.63;2.47;;;;;;;12.72;42.24;100484.91;5065497;28;20021;-70
2022/04/25 05:20:22;;;;;;;4.05;2.20;;;;;;;13.13;41.78;100489.44;5065398;28;20056;-71
2022/04/25 05:22:48;;;;;;;3.95;2.13;;;;;;;13.31;41.12;100483.00;5065284;28;20347;-71
2022/04/25 05:25:21;;;;;;;3.75;2.30;;;;;;;13.43;39.71;100486.28;5066673;28;20032;-70
2022/04/25 05:27:49;;;;;;;3.95;1.95;;;;;;;13.18;39.49;100500.63;5065408;28;20017;-69
2022/04/25 05:30:15;;;;;;;9.48;2.63;;;;;;;12.94;39.93;100496.72;5065278;28;20032;-69
2022/04/25 05:32:51;;;;;;;5.80;2.40;;;;;;;12.66;40.01;100498.03;5063974;28;20036;-69
2022/04/25 05:35:18;;;;;;;4.60;2.20;;;;;;;12.64;39.92;100502.38;5065380;28;20052;-70
2022/04/25 05:37:45;;;;;;;4.22;2.35;;;;;;;12.07;39.94;100499.69;5065366;28;20029;-69
2022/04/25 05:40:12;;;;;;;3.55;1.95;;;;;;;11.93;41.33;100504.22;5065011;28;20021;-70
2022/04/25 05:42:40;;;;;;;4.20;1.92;;;;;;;12.14;41.07;100492.69;5064875;28;20040;-69
2022/04/25 05:45:08;;;;;;;3.25;2.00;;;;;;;12.37;39.67;100492.38;5064548;28;20029;-70
2022/04/25 05:47:33;;;;;;;6.75;2.10;;;;;;;12.34;39.42;100505.44;5064869;28;20044;-71
2022/04/25 05:52:51;;;;;;;3.08;2.28;;;;;;;12.30;40.78;100502.91;5033651;28;20037;-70
2022/04/25 05:55:17;;;;;;;4.15;2.28;;;;;;;12.80;40.30;100503.00;5064752;28;20032;-70
2022/04/25 05:57:43;;;;;;;3.70;2.20;;;;;;;12.83;39.11;100502.06;5047077;28;20028;-70
2022/04/25 06:00:11;;;;;;;3.67;2.40;;;;;;;12.46;38.94;100503.53;5064968;28;20032;-70
2022/04/25 06:02:38;;;;;;;2.60;1.88;;;;;;;12.05;39.52;100498.84;5046885;28;20511;-70
2022/04/25 06:05:04;;;;;;;6.80;2.50;;;;;;;11.85;40.00;100480.91;5064788;28;20024;-70
2022/04/25 06:07:30;;;;;;;3.55;2.25;;;;;;;11.96;39.55;100494.63;5063129;28;20017;-69
2022/04/25 06:09:56;;;;;;;2.47;1.92;;;;;;;12.06;40.08;100489.31;5046370;28;20055;-70
2022/04/25 06:12:22;;;;;;;4.28;2.15;;;;;;;12.23;38.63;100499.50;5064625;28;20032;-70
2022/04/25 06:14:48;;;;;;;2.83;2.10;;;;;;;11.95;38.80;100477.28;5064544;28;20029;-70
2022/04/25 06:17:15;;;;;;;4.07;2.10;;;;;;;12.01;39.46;100492.81;5064843;28;20017;-70
2022/04/25 06:19:41;;;;;;;4.03;2.30;;;;;;;12.38;38.28;100496.69;5064560;28;20465;-70
2022/04/25 06:22:07;;;;;;;3.80;1.90;;;;;;;12.53;37.81;100489.53;5064662;28;20092;-70
2022/04/25 06:24:32;;;;;;;2.88;1.95;;;;;;;12.62;37.85;100497.19;5064330;28;20060;-70
2022/04/25 06:26:58;;;;;;;3.95;2.10;;;;;;;12.57;37.50;100491.19;5064099;28;20021;-71
2022/04/25 06:29:24;;;;;;;2.78;1.60;;;;;;;12.47;38.02;100476.59;5064520;28;20020;-70
2022/04/25 06:31:49;;;;;;;2.30;1.90;;;;;;;12.32;37.73;100486.34;5064327;28;20025;-70
2022/04/25 06:34:15;;;;;;;3.00;1.80;;;;;;;12.31;37.92;100474.25;5064220;28;20037;-70
2022/04/25 06:36:41;;;;;;;4.65;1.75;;;;;;;12.42;38.81;100483.63;5064341;28;20072;-70
2022/04/25 06:39:08;;;;;;;2.17;1.70;;;;;;;12.97;38.00;100488.84;5064409;28;20025;-70
2022/04/25 06:41:33;;;;;;;3.10;1.80;;;;;;;13.31;36.71;100445.66;5064015;28;20029;-70
2022/04/25 06:43:59;;;;;;;2.95;1.63;;;;;;;13.53;35.14;100482.63;5063705;28;20096;-70
2022/04/25 06:46:25;;;;;;;2.92;1.63;;;;;;;13.34;35.13;100485.56;5063949;28;20021;-70
2022/04/25 06:51:35;;;;;;;2.17;1.65;;;;;;;13.18;35.73;100473.72;5064438;28;20039;-69
2022/04/25 06:54:00;;;;;;;2.00;1.52;;;;;;;13.43;35.58;100475.84;5068723;28;20021;-69
2022/04/25 06:56:25;;;;;;;1.98;1.45;;;;;;;13.53;34.82;100459.16;5071714;28;20353;-69
2022/04/25 06:58:51;;;;;;;3.30;1.60;;;;;;;13.79;33.88;100472.56;5064816;28;20495;-70
2022/04/25 07:01:16;;;;;;;2.00;1.23;;;;;;;14.03;33.57;100475.53;5063176;28;20017;-70
2022/04/25 07:03:41;;;;;;;4.68;1.65;;;;;;;14.47;33.48;100472.84;5063137;28;20043;-69
2022/04/25 07:06:07;;;;;;;1.50;1.30;;;;;;;14.57;32.16;100465.63;5063854;28;20028;-69
2022/04/25 07:08:33;;;;;;;3.58;1.90;;;;;;;14.53;32.57;100469.19;5045823;28;20053;-69
2022/04/25 07:10:58;;;;;;;2.88;1.65;;;;;;;14.82;32.63;100460.69;5063699;28;20162;-70
2022/04/25 07:13:24;;;;;;;2.33;1.40;;;;;;;15.27;31.87;100461.25;5063576;28;20021;-70
2022/04/25 07:15:50;;;;;;;1.98;1.27;;;;;;;15.45;31.13;100465.13;5063674;28;20028;-70
2022/04/25 07:18:16;;;;;;;3.03;1.50;;;;;;;15.68;31.37;100452.28;5062209;28;20021;-70
2022/04/25 07:20:41;;;;;;;3.75;1.63;;;;;;;16.07;30.28;100461.66;5063442;28;20031;-69
2022/04/25 07:28:50;;;;;;;5.32;2.00;;;;;;;16.84;28.32;100463.56;5062412;28;20028;-69
2022/04/25 07:31:16;;;;;;;2.25;1.50;;;;;;;16.81;28.35;100455.81;5062088;28;20044;-69
2022/04/25 07:33:43;;;;;;;2.25;1.35;;;;;;;16.47;27.81;100443.81;5062949;28;20044;-69
2022/04/25 07:36:09;;;;;;;2.40;1.55;;;;;;;16.27;27.61;100453.19;5063227;28;20432;-69
2022/04/25 07:38:36;;;;;;;3.47;2.47;;;;;;;15.85;27.96;100444.81;5063432;28;20049;-69
2022/04/25 07:41:02;;;;;;;5.80;1.80;;;;;;;16.00;29.00;100453.13;5062980;28;20048;-69
2022/04/25 07:43:29;;;;;;;2.20;1.60;;;;;;;16.41;28.03;100431.78;5062784;28;20029;-69
2022/04/25 07:45:55;;;;;;;2.03;1.23;;;;;;;16.65;26.64;100437.13;5045056;28;20017;-69
2022/04/25 07:48:20;;;;;;;2.42;1.20;;;;;;;16.51;26.35;100455.06;5062918;28;20024;-70
2022/04/25 07:50:46;;;;;;;3.13;1.30;;;;;;;16.43;26.26;100456.16;5045015;28;20084;-69
2022/04/25 07:53:12;;;;;;;2.28;1.15;;;;;;;16.34;26.41;100446.81;5062896;28;20017;-69
2022/04/25 07:55:38;;;;;;;4.43;1.40;;;;;;;16.50;26.19;100446.34;5062245;28;20027;-70
2022/04/25 07:58:03;;;;;;;4.25;1.20;;;;;;;16.34;26.28;100440.75;5061394;28;20021;-70
2022/04/25 08:00:29;;;;;;;2.30;1.20;;;;;;;16.45;26.59;100448.25;5062880;28;20017;-69
2022/04/25 08:02:54;;;;;;;2.50;1.25;;;;;;;16.85;26.50;100441.66;5062459;28;20037;-70
2022/04/25 08:05:20;;;;;;;2.90;1.08;;;;;;;17.25;24.50;100428.13;5062565;28;20017;-70
2022/04/25 08:07:45;;;;;;;1.63;1.05;;;;;;;16.88;24.05;100439.84;5062649;28;20055;-71
2022/04/25 08:10:11;;;;;;;2.35;1.45;;;;;;;16.46;24.79;100439.47;5044449;28;20306;-69
2022/04/25 08:18:06;;;;;;;4.32;1.10;;;;;;;16.65;24.32;100428.38;5062699;28;20059;-68
2022/04/25 08:20:34;;;;;;;2.38;1.48;;;;;;;16.42;24.67;100440.50;5044502;28;20029;-69
2022/04/25 08:23:01;;;;;;;2.30;1.13;;;;;;;16.62;24.83;100437.22;5062741;28;20389;-69
2022/04/25 08:25:27;;;;;;;1.73;1.33;;;;;;;16.89;24.58;100441.56;5062264;28;20032;-69
2022/04/25 08:27:53;;;;;;;2.40;1.45;;;;;;;16.92;24.30;100425.72;5044510;28;20041;-69
2022/04/25 08:30:20;;;;;;;3.78;1.23;;;;;;;16.84;24.42;100432.09;5062508;28;20052;-70
2022/04/25 08:32:46;;;;;;;2.90;1.40;;;;;;;16.77;24.59;100430.63;5061930;28;20028;-69
2022/04/25 08:35:13;;;;;;;3.30;1.25;;;;;;;16.91;24.83;100429.25;5062324;28;20033;-69
2022/04/25 08:37:39;;;;;;;4.82;2.00;;;;;;;17.60;24.80;100435.59;5062292;28;20400;-68
2022/04/25 08:40:05;;;;;;;9.75;2.63;;;;;;;18.07;23.71;100428.56;5044254;28;20124;-70
2022/04/25 08:42:31;;;;;;;1.60;0.98;;;;;;;18.44;23.20;100421.00;5062306;28;20021;-69
2022/04/25 08:44:58;;;;;;;3.75;1.15;;;;;;;18.20;22.88;100423.69;5062553;28;20096;-70
2022/04/25 08:47:28;;;;;;;1.95;1.38;;;;;;;18.02;22.85;100431.38;5062213;28;20037;-70
2022/04/25 08:49:57;;;;;;;3.78;1.17;;;;;;;17.96;23.40;100436.84;5062252;28;20475;-69
2022/04/25 08:52:23;;;;;;;4.40;1.55;;;;;;;17.94;23.17;100430.81;5062324;28;20021;-69
2022/04/25 08:54:49;;;;;;;1.92;0.90;;;;;;;17.65;23.69;100422.31;5062285;28;20056;-70
2022/04/25 08:57:17;;;;;;;2.65;1.20;;;;;;;18.09;23.81;100432.84;5062349;28;20048;-70
2022/04/25 08:59:44;;;;;;;2.38;1.20;;;;;;;18.68;23.30;100431.41;5062191;28;20029;-69
2022/04/25 09:02:10;;;;;;;2.42;1.40;;;;;;;18.80;22.61;100420.34;5062146;28;20029;-70
2022/04/25 09:04:36;;;;;;;3.67;1.23;;;;;;;18.96;22.75;100419.72;5062133;28;20020;-68
2022/04/25 09:07:02;;;;;;;1.80;1.13;;;;;;;19.35;22.27;100419.78;5062164;28;20469;-69
2022/04/25 09:09:27;;;;;;;4.55;1.20;;;;;;;19.29;21.89;100420.94;5065844;28;20028;-69
2022/04/25 09:12:09;;;;;;;2.08;1.20;;;;;;;19.27;22.18;100420.16;5065678;28;20330;-70
2022/04/25 09:14:36;;;;;;;3.92;1.10;;;;;;;19.60;21.88;100413.44;5065593;28;20028;-69
2022/04/25 09:17:03;;;;;;;2.95;1.20;;;;;;;19.85;22.06;100410.50;5064244;28;20026;-71
2022/04/25 09:19:32;;;;;;;4.18;1.27;;;;;;;20.69;21.56;100421.41;5065661;28;20029;-70
2022/04/25 09:21:58;;;;;;;1.65;1.15;;;;;;;20.86;20.93;100417.03;5065543;28;20286;-70
2022/04/25 09:24:24;;;;;;;2.03;1.20;;;;;;;20.88;21.00;100407.28;5047620;28;20075;-69
2022/04/25 09:26:52;;;;;;;1.88;1.10;;;;;;;20.57;20.77;100420.25;5065299;28;20029;-69
2022/04/25 09:29:27;;;;;;;1.55;1.15;;;;;;;20.04;20.88;100413.13;5065567;28;20021;-70
2022/04/25 09:31:53;;;;;;;2.65;1.20;;;;;;;19.78;20.89;100415.19;5065355;28;20089;-69
2022/04/25 09:34:59;;;;;;;2.60;1.15;;;;;;;19.54;21.32;100406.66;5065129;28;20067;-70
2022/04/25 09:37:06;;;;;;;5.60;1.17;;;;;;;19.37;21.68;100399.53;5064943;28;20029;-69
2022/04/25 09:39:32;;;;;;;1.95;1.15;;;;;;;19.36;21.37;100409.19;5065182;28;20021;-68
2022/04/25 09:42:00;;;;;;;1.25;1.08;;;;;;;19.13;21.26;100412.88;5064890;28;20028;-69
2022/04/25 09:44:26;;;;;;;4.40;1.38;;;;;;;18.86;21.62;100389.47;5065095;28;20025;-69
2022/04/25 09:46:51;;;;;;;3.42;1.23;;;;;;;18.79;21.79;100409.91;5047089;28;20039;-69
2022/04/25 09:49:20;;;;;;;5.90;1.58;;;;;;;18.95;22.15;100403.06;5065189;28;20025;-70
2022/04/25 09:51:59;;;;;;;4.80;1.10;;;;;;;19.64;22.56;100402.69;5065165;28;20054;-69
2022/04/25 09:54:25;;;;;;;3.85;1.55;;;;;;;20.15;22.05;100407.34;5065173;28;20468;-69
2022/04/25 09:56:51;;;;;;;2.83;1.33;;;;;;;20.51;21.44;100407.38;5064855;28;20036;-69
2022/04/25 09:59:16;;;;;;;3.67;1.23;;;;;;;21.09;22.05;100407.09;5065227;28;20017;-69
2022/04/25 10:01:43;;;;;;;2.30;1.33;;;;;;;21.97;21.54;100390.06;5064900;28;20082;-70
2022/04/25 10:04:32;;;;;;;2.28;1.17;;;;;;;22.76;20.91;100401.38;5064832;28;20039;-69
2022/04/25 10:07:00;;;;;;;2.38;1.00;;;;;;;23.15;20.63;100392.88;5065078;28;20040;-69
2022/04/25 10:09:30;;;;;;;2.08;1.02;;;;;;;23.66;19.91;100372.13;5064805;28;20089;-68
2022/04/25 10:12:03;;;;;;;2.20;1.00;;;;;;;23.85;19.50;100387.69;5064061;28;20165;-70
2022/04/25 10:14:29;;;;;;;3.17;1.10;;;;;;;23.91;19.58;100397.03;5063479;28;20045;-69
2022/04/25 10:16:58;;;;;;;2.22;1.10;;;;;;;24.00;19.63;100392.00;5063694;28;20401;-68
2022/04/25 10:19:25;;;;;;;1.23;1.05;;;;;;;24.14;19.71;100384.91;5063540;28;20028;-69
2022/04/25 10:21:52;;;;;;;1.67;1.00;;;;;;;24.21;19.06;100380.94;5064506;28;20056;-70
2022/04/25 10:24:18;;;;;;;2.83;1.10;;;;;;;24.04;19.19;100391.78;5064498;28;20020;-69
2022/04/25 10:26:45;;;;;;;1.88;0.75;;;;;;;24.07;19.31;100386.28;5062809;28;20500;-69
2022/04/25 10:29:16;;;;;;;4.18;1.23;;;;;;;24.45;19.42;100380.25;5064328;28;20021;-69
2022/04/25 10:31:45;;;;;;;2.10;0.90;;;;;;;24.54;18.67;100377.94;5064284;28;20021;-70
2022/04/25 10:34:14;;;;;;;1.92;0.88;;;;;;;24.38;19.13;100387.75;5063886;28;20045;-69
2022/04/25 10:36:39;;;;;;;2.00;1.10;;;;;;;24.38;19.06;100381.59;5064502;28;20029;-69
2022/04/25 10:39:31;;;;;;;2.53;1.00;;;;;;;23.85;18.83;100372.63;5064165;28;20360;-69
2022/04/25 10:44:43;;;;;;;3.30;1.00;;;;;;;23.54;19.69;100368.47;5063936;28;20109;-69
2022/04/25 10:47:09;;;;;;;4.22;1.23;;;;;;;23.50;19.70;100378.41;5063876;28;20081;-69
2022/04/25 10:49:42;;;;;;;3.95;1.23;;;;;;;23.46;19.74;100361.88;5064143;28;20021;-69
2022/04/25 10:52:44;;;;;;;2.97;1.10;;;;;;;23.49;19.90;100366.09;5045848;28;20059;-69
2022/04/25 10:55:09;;;;;;;;;;;;;;;23.56;20.25;100366.56;4982641;28;20031;-68
2022/04/25 10:57:35;;;;;;;1.50;0.95;;;;;;;23.62;19.98;100371.47;4982358;28;19922;-69
2022/04/25 11:00:00;;;;;;;3.45;1.20;;;;;;;23.47;19.88;100368.00;4982478;28;20093;-69
2022/04/25 11:02:27;;;;;;;2.70;1.05;;;;;;;23.40;19.98;100370.22;4982383;28;20042;-68
2022/04/25 11:05:11;;;;;;;4.03;1.50;;;;;;;23.24;19.94;100373.78;4982028;28;20488;-69
2022/04/25 11:07:38;;;;;;;5.93;1.15;;;;;;;23.15;20.37;100369.06;4982106;28;20083;-69
2022/04/25 11:10:04;;;;;;;12.68;2.28;;;;;;;23.07;19.97;100368.69;4982214;28;20054;-68
2022/04/25 11:12:55;;;;;;;4.35;1.10;;;;;;;22.80;20.06;100367.63;4982038;28;20035;-69
2022/04/25 11:15:40;;;;;;;3.90;1.13;;;;;;;22.76;20.49;100368.78;4982264;28;20039;-70
2022/04/25 11:18:28;;;;;;;6.45;1.33;;;;;;;22.97;20.79;100366.59;4982210;28;20094;-70
2022/04/25 11:20:57;;;;;;;2.60;1.02;;;;;;;23.31;20.22;100361.00;4982246;28;20058;-68
2022/04/25 11:23:26;;;;;;;2.03;0.98;;;;;;;22.77;20.39;100366.03;4982240;28;20045;-68
2022/04/25 11:25:53;;;;;;;2.35;1.30;;;;;;;21.17;21.74;100368.81;4981594;28;20035;-69
2022/04/25 11:28:19;;;;;;;1.90;1.17;;;;;;;19.41;23.45;100340.56;4993609;28;20041;-69
2022/04/25 11:30:44;;;;;;;5.38;1.40;;;;;;;18.35;25.27;100372.31;5061469;28;20040;-69
2022/04/25 11:33:12;;;;;;;7.03;1.40;;;;;;;17.38;26.51;100362.06;5062268;28;20067;-68
2022/04/25 11:35:39;;;;;;;4.13;1.30;;;;;;;16.64;27.70;100362.03;5063256;28;20021;-69
2022/04/25 11:38:05;;;;;;;3.75;1.42;;;;;;;15.97;29.43;100372.91;5063376;28;20020;-69
2022/04/25 11:40:31;;;;;;;5.40;1.40;;;;;;;15.30;30.60;100366.16;5062870;28;20031;-69
2022/04/25 11:42:59;;;;;;;2.22;1.35;;;;;;;14.85;31.82;100374.38;5062930;28;20036;-69
2022/04/25 11:45:25;;;;;;;3.55;1.40;;;;;;;14.41;33.45;100371.97;5062858;28;20028;-69
2022/04/25 11:47:50;;;;;;;3.10;1.80;;;;;;;14.16;34.12;100382.13;5063061;28;20021;-69
2022/04/25 11:50:19;;;;;;;3.95;1.83;;;;;;;13.91;34.47;100377.50;5062823;28;20056;-69
2022/04/25 11:52:49;;;;;;;5.70;1.50;;;;;;;13.64;35.53;100380.72;5062990;28;20031;-69
2022/04/25 11:55:17;;;;;;;4.28;1.50;;;;;;;13.42;35.23;100383.72;5062940;28;20029;-69